Miranorte, Brazil
Current Conditions -  °F | °C
As of 2:00 AM on Friday 31 Oct 2014 (Local Time) from SBPJ Reporting Station
Scattered Clouds Scattered Clouds  
Wind Chill: 79°   Ceiling: Unl
Heat Index: 81°   Visibility: 6mi
Dew Point: 68°   Wind: 6mph
Humidity: 69%   Direction: 120°ESE
Pressure: 29.85"   Gusts: NA
Location:  9.48°S, 48.55°W
Report Text: SBPJ 310500Z 12005KT 9999 FEW025 FEW027TCU SCT100 26/20 Q1011
Loading
Personal Weather Stations






























Interactive Weather Map
Tropical Storm Tracking
New forecast layout! Learn more

10-Day Weather Forecast

Advertisements
Track Severe Weather on mobile